Royse City's Hourly Summary for Thursday, May 10, 2018
Hour Temp
(f)
RH
(%)
Solar Rad.
(MJ/m2)
Rainfall
(in)
Wind
(mph)
5/10/2018 12:00 AM 69 66 0 0 0.52
5/10/2018 1:00 AM 69 62 0 0 0.33
5/10/2018 2:00 AM 69 62 0 0 0.8
5/10/2018 3:00 AM 67 62 0 0 0.65
5/10/2018 4:00 AM 65 66 0 0 0.65
5/10/2018 5:00 AM 64 69 0 0 0.22
5/10/2018 6:00 AM 62 73 0 0 0.23
5/10/2018 7:00 AM 59 78 0.02 0 0.06
5/10/2018 8:00 AM 63 76 0.4 0 0.94
5/10/2018 9:00 AM 68 75 1.18 0 2.53
5/10/2018 10:00 AM 72 64 1.73 0 3.01
5/10/2018 11:00 AM 75 56 2.42 0 2.96
5/10/2018 12:00 PM 78 48 3.08 0 3.24
5/10/2018 1:00 PM 80 43 3.37 0 3.69
5/10/2018 2:00 PM 81 42 3.4 0 3.66
5/10/2018 3:00 PM 83 42 3.2 0 3.31
5/10/2018 4:00 PM 83 40 2.83 0 3.26
5/10/2018 5:00 PM 84 39 2.22 0 3.29
5/10/2018 6:00 PM 83 40 0.55 0 3.17
5/10/2018 7:00 PM 82 41 0.84 0 3.42
5/10/2018 8:00 PM 79 49 0.25 0 2.04
5/10/2018 9:00 PM 75 55 0.01 0 1.1
5/10/2018 10:00 PM 73 61 0 0 1.05
5/10/2018 11:00 PM 71 66 0 0 1.1
Data Summary 73 57 25.50 0.00 1.88